Terminal Aerodrome Forecast
Issued by NWS

Home | Current Version | Previous Version | Text Only | Print | Product List | Glossary On
Versions: 1 2 3 4 5 6 7 8 9 10 11 12 13 14 15 16 17 18 19 20 21 22 23 24 25 26 27 28 29 30
441
FTUS43 KLSX 181732
TAFUIN
TAF
KUIN 181732Z 1818/1918 21010KT P6SM BKN010
     FM182000 20008KT P6SM SCT020
     FM190200 17004KT P6SM BKN020
     FM190300 17004KT 3SM BR BKN015
     FM190900 15005KT 1SM BR BKN010=

USA.gov is the U.S. government's official web portal to all federal, state and local government web resources and services.